Terminal Aerodrome Forecast
Issued by NWS

Home | Current Version | Previous Version | Text Only | Print | Product List | Glossary On
Versions: 1 2 3 4 5 6 7 8 9 10 11 12 13 14 15
000
FTUS46 KMTR 180500
TAFSJC
TAF
KSJC 180534Z 1806/1906 10010KT P6SM -SHRA FEW035 BKN060 OVC090
     FM180800 13010KT P6SM VCSH BKN040 OVC060
     FM181300 14014KT P6SM BKN025 OVC050
     FM181800 13005KT P6SM BKN050
     FM182300 09006KT P6SM BKN050
     FM190300 14005KT P6SM BKN050 OVC100=

USA.gov is the U.S. government's official web portal to all federal, state and local government web resources and services.